Time;durP1;ratioP1;P1;durP2;ratioP2;P2;SDS_P1;SDS_P2;PMS_P1;PMS_P2;Temp;Humidity;BMP_temperature;BMP_pressure;BME280_temperature;BME280_humidity;BME280_pressure;Samples;Min_cycle;Max_cycle;Signal;HPM_P1;HPM_P2
2022/11/25 00:01:23;;;;;;;39.30;20.17;;;4.60;93.80;;;;;;4974431;28;20185;-86
2022/11/25 00:03:50;;;;;;;37.37;20.47;;;4.60;93.80;;;;;;4975022;28;20183;-87
2022/11/25 00:06:25;;;;;;;30.17;19.83;;;4.60;93.80;;;;;;4974531;28;20244;-86
2022/11/25 00:08:54;;;;;;;39.47;20.10;;;4.50;93.70;;;;;;4975233;28;20217;-86
2022/11/25 00:11:19;;;;;;;45.80;21.53;;;4.50;93.70;;;;;;4976219;28;20176;-86
2022/11/25 00:13:46;;;;;;;35.27;21.63;;;4.50;93.80;;;;;;4978936;28;20203;-86
2022/11/25 00:16:17;;;;;;;34.83;21.60;;;4.50;93.90;;;;;;4981136;28;20329;-86
2022/11/25 00:18:44;;;;;;;38.50;20.37;;;4.50;93.90;;;;;;4982777;28;20174;-86
2022/11/25 00:21:13;;;;;;;34.07;21.23;;;4.40;93.80;;;;;;4983577;28;20189;-86
2022/11/25 00:23:38;;;;;;;37.73;20.43;;;4.50;93.90;;;;;;4981422;28;20188;-85
2022/11/25 00:26:09;;;;;;;37.27;20.97;;;4.50;94.00;;;;;;4982267;28;20209;-86
2022/11/25 00:28:34;;;;;;;46.97;21.50;;;4.60;94.10;;;;;;4981274;28;20303;-86
2022/11/25 00:31:08;;;;;;;36.73;22.30;;;4.60;94.10;;;;;;4982688;28;20201;-86
2022/11/25 00:33:34;;;;;;;42.93;22.47;;;4.60;94.20;;;;;;4983201;28;20185;-86
2022/11/25 00:36:05;;;;;;;44.90;22.50;;;4.60;94.20;;;;;;4980997;28;20288;-86
2022/11/25 00:38:31;;;;;;;39.97;22.30;;;4.60;94.20;;;;;;4982828;28;20276;-87
2022/11/25 00:46:24;;;;;;;43.20;22.67;;;4.70;94.30;;;;;;4983323;28;20209;-86
2022/11/25 00:48:50;;;;;;;39.63;22.27;;;4.70;94.30;;;;;;4982856;28;20213;-86
2022/11/25 00:51:15;;;;;;;42.60;23.07;;;4.70;94.30;;;;;;4980972;28;20658;-86
2022/11/25 00:53:41;;;;;;;40.50;23.67;;;4.70;94.30;;;;;;4981475;28;20205;-86
2022/11/25 00:56:12;;;;;;;47.10;22.10;;;4.60;94.30;;;;;;4983071;28;20241;-86
2022/11/25 00:58:38;;;;;;;51.47;22.57;;;4.60;94.20;;;;;;4981683;28;20185;-86
2022/11/25 01:01:04;;;;;;;43.27;21.93;;;4.50;94.20;;;;;;4983267;28;20187;-86
2022/11/25 01:03:30;;;;;;;41.23;21.90;;;4.50;94.20;;;;;;4981751;28;20182;-86
2022/11/25 01:06:01;;;;;;;38.13;22.20;;;4.50;94.30;;;;;;4981514;28;20209;-86
2022/11/25 01:08:28;;;;;;;40.53;21.83;;;4.50;94.40;;;;;;4981253;28;20297;-86
2022/11/25 01:11:03;;;;;;;48.27;22.47;;;4.60;94.40;;;;;;4980893;28;20185;-86
2022/11/25 01:13:28;;;;;;;41.97;23.57;;;4.60;94.30;;;;;;4981402;28;20181;-86
2022/11/25 01:15:54;;;;;;;29.93;19.20;;;4.60;94.30;;;;;;4981331;28;20200;-86
2022/11/25 01:18:20;;;;;;;43.27;22.60;;;4.50;94.30;;;;;;4983259;28;20189;-86
2022/11/25 01:20:45;;;;;;;45.07;22.23;;;4.50;94.30;;;;;;4981491;28;20181;-86
2022/11/25 01:23:11;;;;;;;38.83;21.47;;;4.50;94.30;;;;;;4981267;28;20533;-86
2022/11/25 01:25:37;;;;;;;46.77;24.17;;;4.50;94.30;;;;;;4978033;28;20203;-86
2022/11/25 01:28:03;;;;;;;77.30;43.47;;;4.50;94.30;;;;;;4978148;28;20178;-86
2022/11/25 01:30:29;;;;;;;45.60;26.70;;;4.50;94.30;;;;;;4979390;28;20184;-86
2022/11/25 01:32:54;;;;;;;40.63;21.23;;;4.50;94.30;;;;;;4979318;28;20217;-86
2022/11/25 01:35:20;;;;;;;39.47;22.10;;;4.50;94.30;;;;;;4977840;28;20291;-86
2022/11/25 01:37:45;;;;;;;36.93;20.63;;;4.50;94.30;;;;;;4977610;28;20179;-86
2022/11/25 01:40:11;;;;;;;36.73;20.87;;;4.40;94.30;;;;;;4978119;28;20177;-86
2022/11/25 01:42:43;;;;;;;42.97;22.77;;;4.40;94.30;;;;;;4978545;28;20182;-86
2022/11/25 01:45:31;;;;;;;37.67;20.73;;;4.40;94.30;;;;;;4978319;28;20589;-86
2022/11/25 01:48:03;;;;;;;37.93;20.83;;;4.40;94.30;;;;;;4978134;28;20551;-86
2022/11/25 01:50:32;;;;;;;42.97;20.63;;;4.50;94.40;;;;;;4978018;28;20170;-86
2022/11/25 01:52:59;;;;;;;40.93;21.37;;;4.40;94.40;;;;;;4979296;28;20185;-86
2022/11/25 01:55:29;;;;;;;38.60;19.97;;;4.40;94.40;;;;;;4977765;28;20224;-86
2022/11/25 01:57:55;;;;;;;38.03;20.77;;;4.40;94.40;;;;;;4979002;28;20173;-86
2022/11/25 02:00:21;;;;;;;35.40;19.47;;;4.40;94.40;;;;;;4978135;28;20174;-86
2022/11/25 02:02:49;;;;;;;40.03;20.87;;;4.40;94.40;;;;;;4977639;28;20317;-86
2022/11/25 02:05:18;;;;;;;47.47;19.40;;;4.40;94.40;;;;;;4977456;28;20740;-86
2022/11/25 02:07:47;;;;;;;35.53;20.07;;;4.40;94.40;;;;;;4977306;28;20189;-86
2022/11/25 02:10:20;;;;;;;36.17;18.17;;;4.30;94.40;;;;;;4978641;28;20683;-86
2022/11/25 02:12:46;;;;;;;32.07;18.17;;;4.40;94.40;;;;;;4977710;28;20225;-86
2022/11/25 02:15:14;;;;;;;31.17;16.40;;;4.30;94.30;;;;;;4977672;28;20206;-86
2022/11/25 02:17:40;;;;;;;32.90;17.60;;;4.20;94.30;;;;;;4979239;28;20260;-86
2022/11/25 02:20:15;;;;;;;31.47;17.00;;;4.10;94.30;;;;;;4977535;28;20191;-86
2022/11/25 02:22:53;;;;;;;32.13;15.80;;;4.00;94.30;;;;;;4978240;28;20186;-86
2022/11/25 02:25:24;;;;;;;39.97;17.67;;;4.00;94.30;;;;;;4978858;28;20202;-87
2022/11/25 02:28:04;;;;;;;31.10;16.57;;;4.00;94.30;;;;;;4979806;28;20182;-86
2022/11/25 02:30:30;;;;;;;36.30;16.53;;;4.10;94.30;;;;;;4977555;28;20166;-86
2022/11/25 02:32:57;;;;;;;36.97;16.43;;;4.00;94.20;;;;;;4977306;28;20280;-86
2022/11/25 02:35:35;;;;;;;24.13;14.77;;;3.90;94.20;;;;;;4977706;28;20199;-87
2022/11/25 02:38:06;;;;;;;31.77;14.33;;;3.90;94.20;;;;;;4978986;28;20163;-87
2022/11/25 02:40:36;;;;;;;29.00;15.40;;;3.90;94.20;;;;;;4978191;28;20194;-87
2022/11/25 02:43:01;;;;;;;30.83;15.50;;;3.80;94.20;;;;;;4978027;28;20183;-86
2022/11/25 02:45:38;;;;;;;29.47;16.20;;;3.90;94.20;;;;;;4978140;28;20193;-86
2022/11/25 02:48:04;;;;;;;27.57;14.90;;;3.90;94.20;;;;;;4977259;28;20169;-86
2022/11/25 02:50:29;;;;;;;38.20;16.77;;;3.80;94.10;;;;;;4978064;28;20333;-86
2022/11/25 02:52:55;;;;;;;27.20;15.67;;;3.80;94.20;;;;;;4977265;28;20675;-86
2022/11/25 02:55:20;;;;;;;32.00;16.47;;;3.80;94.20;;;;;;4978448;28;20201;-86
2022/11/25 02:57:46;;;;;;;30.37;16.00;;;3.70;94.10;;;;;;4977516;28;20231;-86
2022/11/25 03:00:12;;;;;;;27.33;15.63;;;3.70;94.10;;;;;;4979361;28;20659;-86
2022/11/25 03:02:38;;;;;;;41.47;16.00;;;3.70;94.10;;;;;;4977258;28;20667;-86
2022/11/25 03:05:04;;;;;;;29.27;15.40;;;3.60;94.10;;;;;;4977885;28;20265;-86
2022/11/25 03:07:29;;;;;;;32.77;15.70;;;3.60;94.10;;;;;;4978244;28;20662;-86
2022/11/25 03:09:55;;;;;;;32.50;16.23;;;3.50;94.00;;;;;;4978630;28;20203;-86
2022/11/25 03:12:20;;;;;;;28.13;15.33;;;3.50;94.00;;;;;;4978137;28;20171;-86
2022/11/25 03:14:46;;;;;;;27.27;16.47;;;3.40;94.00;;;;;;4978498;28;20715;-86
2022/11/25 03:17:13;;;;;;;29.83;17.57;;;3.30;94.00;;;;;;4977962;28;20188;-86
2022/11/25 03:19:38;;;;;;;29.17;16.57;;;3.30;94.00;;;;;;4980370;28;20697;-87
2022/11/25 03:22:04;;;;;;;33.00;15.87;;;3.30;94.10;;;;;;4977412;28;20181;-86
2022/11/25 03:24:31;;;;;;;32.37;14.97;;;3.20;94.10;;;;;;4980076;28;20208;-86
2022/11/25 03:26:56;;;;;;;30.93;16.77;;;3.30;94.20;;;;;;4979644;28;20234;-86
2022/11/25 03:29:22;;;;;;;26.10;15.83;;;3.30;94.20;;;;;;4979073;28;20200;-86
2022/11/25 03:31:47;;;;;;;29.90;16.00;;;3.30;94.20;;;;;;4979777;28;20211;-87
2022/11/25 03:34:13;;;;;;;23.10;15.20;;;3.30;94.20;;;;;;4977584;28;20572;-86
2022/11/25 03:36:38;;;;;;;26.67;16.00;;;3.30;94.20;;;;;;4978301;28;20678;-86
2022/11/25 03:39:04;;;;;;;21.67;14.97;;;3.20;94.20;;;;;;4978035;28;20267;-86
2022/11/25 03:41:29;;;;;;;31.57;14.83;;;3.20;94.20;;;;;;4979445;28;20247;-86
2022/11/25 03:43:55;;;;;;;19.80;14.43;;;3.10;94.20;;;;;;4979356;28;20180;-86
2022/11/25 03:46:21;;;;;;;30.43;15.17;;;3.00;94.20;;;;;;4977945;28;20207;-86
2022/11/25 03:48:46;;;;;;;23.93;14.47;;;2.90;94.10;;;;;;4979551;28;20203;-87
2022/11/25 03:51:12;;;;;;;26.43;14.40;;;2.80;94.10;;;;;;4978351;28;20225;-87
2022/11/25 03:53:37;;;;;;;29.03;14.70;;;2.80;94.10;;;;;;4979024;28;20176;-86
2022/11/25 03:56:03;;;;;;;23.80;14.63;;;2.80;94.10;;;;;;4978723;28;20191;-86
2022/11/25 03:58:28;;;;;;;30.23;15.20;;;2.70;94.10;;;;;;4978708;28;20533;-87
2022/11/25 04:00:58;;;;;;;22.83;14.17;;;2.70;94.10;;;;;;4977147;28;20271;-87
2022/11/25 04:03:23;;;;;;;23.23;15.57;;;2.70;94.20;;;;;;4979943;28;20524;-86
2022/11/25 04:05:49;;;;;;;22.87;15.60;;;2.80;94.20;;;;;;4978208;28;20202;-86
2022/11/25 04:08:14;;;;;;;23.27;15.13;;;2.80;94.30;;;;;;4978109;28;20194;-86
2022/11/25 04:10:40;;;;;;;26.27;16.60;;;2.90;94.30;;;;;;4977902;28;20177;-86
2022/11/25 04:13:05;;;;;;;33.17;15.87;;;2.90;94.30;;;;;;4978114;28;20206;-86
2022/11/25 04:15:31;;;;;;;22.10;14.90;;;2.90;94.30;;;;;;4978133;28;20200;-86
2022/11/25 04:17:56;;;;;;;35.47;16.80;;;2.90;94.30;;;;;;4978683;28;20175;-86
2022/11/25 04:20:22;;;;;;;26.63;16.70;;;3.00;94.40;;;;;;4978127;28;20204;-86
2022/11/25 04:22:47;;;;;;;26.23;16.43;;;3.10;94.40;;;;;;4977832;28;20178;-86
2022/11/25 04:25:13;;;;;;;27.60;14.83;;;3.10;94.40;;;;;;4979661;28;20572;-86
2022/11/25 04:27:38;;;;;;;28.33;16.23;;;3.10;94.40;;;;;;4978878;28;20657;-86
2022/11/25 04:30:06;;;;;;;29.77;15.67;;;3.10;94.50;;;;;;4979063;28;20340;-86
2022/11/25 04:32:31;;;;;;;23.10;16.50;;;3.10;94.50;;;;;;4978779;28;20171;-86
2022/11/25 04:34:57;;;;;;;26.60;15.47;;;3.10;94.50;;;;;;4978568;28;20325;-86
2022/11/25 04:37:22;;;;;;;28.67;14.77;;;3.20;94.60;;;;;;4978166;28;20171;-86
2022/11/25 04:39:48;;;;;;;31.73;16.00;;;3.20;94.60;;;;;;4978464;28;20656;-86
2022/11/25 04:42:31;;;;;;;34.60;15.80;;;3.20;94.60;;;;;;4978950;28;20175;-86
2022/11/25 04:44:58;;;;;;;29.77;15.77;;;3.20;94.60;;;;;;4977446;28;20204;-86
2022/11/25 04:47:24;;;;;;;25.50;15.53;;;3.30;94.60;;;;;;4979201;28;20263;-87
2022/11/25 04:49:49;;;;;;;27.90;15.97;;;3.20;94.60;;;;;;4977588;28;20243;-86
2022/11/25 04:52:15;;;;;;;33.03;15.50;;;3.20;94.60;;;;;;4979036;28;20202;-86
2022/11/25 04:54:40;;;;;;;27.60;14.53;;;3.20;94.60;;;;;;4978879;28;20176;-86
2022/11/25 04:57:07;;;;;;;25.50;15.00;;;3.20;94.60;;;;;;4973451;28;20177;-86
2022/11/25 04:59:39;;;;;;;36.97;15.30;;;3.20;94.70;;;;;;4973253;28;20175;-86
2022/11/25 05:02:25;;;;;;;26.57;14.43;;;3.30;94.70;;;;;;4976686;28;20651;-85
2022/11/25 05:04:52;;;;;;;27.57;13.90;;;3.30;94.70;;;;;;4977553;28;20264;-85
2022/11/25 05:07:20;;;;;;;26.10;14.30;;;3.30;94.70;;;;;;4976109;28;20537;-85
2022/11/25 05:09:45;;;;;;;32.87;14.47;;;3.30;94.80;;;;;;4977741;28;20241;-85
2022/11/25 05:12:17;;;;;;;31.00;14.97;;;3.40;94.80;;;;;;4976285;28;20587;-85
2022/11/25 05:14:43;;;;;;;30.03;14.03;;;3.40;94.80;;;;;;4977494;28;20234;-85
2022/11/25 05:17:24;;;;;;;34.70;15.20;;;3.50;94.80;;;;;;4977344;28;20184;-84
2022/11/25 05:19:50;;;;;;;27.50;14.87;;;3.70;94.90;;;;;;4976135;28;20215;-85
2022/11/25 05:22:19;;;;;;;27.77;13.83;;;3.80;94.90;;;;;;4977285;28;20175;-85
2022/11/25 05:24:45;;;;;;;30.67;15.37;;;3.90;95.00;;;;;;4977318;28;20265;-85
2022/11/25 05:27:10;;;;;;;27.07;13.67;;;4.00;94.90;;;;;;4975997;28;20601;-85
2022/11/25 05:29:36;;;;;;;34.97;14.60;;;4.00;94.90;;;;;;4977081;28;20200;-85
2022/11/25 05:32:03;;;;;;;32.60;15.17;;;4.10;95.00;;;;;;4975927;28;20186;-85
2022/11/25 05:34:28;;;;;;;27.97;15.17;;;4.10;94.90;;;;;;4975790;28;20185;-84
2022/11/25 05:36:55;;;;;;;30.93;14.53;;;4.20;95.00;;;;;;4977167;28;20225;-85
2022/11/25 05:39:21;;;;;;;31.47;13.70;;;4.30;95.00;;;;;;4975749;28;20280;-85
2022/11/25 05:41:47;;;;;;;35.63;14.30;;;4.30;95.00;;;;;;4976852;28;20213;-85
2022/11/25 05:44:13;;;;;;;29.37;14.33;;;4.30;94.90;;;;;;4975607;28;20220;-84
2022/11/25 05:46:38;;;;;;;28.07;13.57;;;4.30;94.90;;;;;;4975497;28;20206;-85
2022/11/25 05:49:04;;;;;;;28.20;14.27;;;4.30;94.90;;;;;;4975602;28;20779;-85
2022/11/25 05:51:30;;;;;;;25.13;13.87;;;4.30;94.90;;;;;;4975545;28;20185;-84
2022/11/25 05:53:56;;;;;;;29.33;13.23;;;4.50;94.90;;;;;;4975627;28;20567;-85
2022/11/25 05:56:22;;;;;;;36.97;13.93;;;4.50;94.90;;;;;;4975425;28;20207;-85
2022/11/25 05:58:47;;;;;;;20.23;12.27;;;4.60;94.80;;;;;;4976661;28;20189;-85
2022/11/25 06:01:15;;;;;;;26.27;13.10;;;4.50;94.80;;;;;;4975423;28;20183;-85
2022/11/25 06:03:41;;;;;;;25.47;12.90;;;4.60;94.80;;;;;;4975471;28;20192;-85
2022/11/25 06:06:07;;;;;;;25.27;12.93;;;4.60;94.70;;;;;;4975525;28;20201;-85
2022/11/25 06:08:34;;;;;;;29.03;13.30;;;4.60;94.70;;;;;;4976475;28;20213;-85
2022/11/25 06:11:07;;;;;;;26.33;12.00;;;4.60;94.70;;;;;;4976036;28;20241;-84
2022/11/25 06:13:32;;;;;;;27.30;12.50;;;4.60;94.60;;;;;;4975728;28;20177;-85
2022/11/25 06:15:58;;;;;;;24.63;12.67;;;4.70;94.60;;;;;;4976414;28;20193;-84
2022/11/25 06:18:23;;;;;;;36.80;13.00;;;4.70;94.60;;;;;;4976454;28;20193;-83
2022/11/25 06:20:57;;;;;;;36.03;12.17;;;4.70;94.50;;;;;;4975086;28;20239;-85
2022/11/25 06:23:23;;;;;;;25.73;12.93;;;4.80;94.50;;;;;;4975369;28;20592;-85
2022/11/25 06:25:49;;;;;;;23.73;13.07;;;4.70;94.40;;;;;;4975085;28;20263;-85
2022/11/25 06:28:14;;;;;;;23.83;12.87;;;4.60;94.40;;;;;;4976131;28;20182;-84
2022/11/25 06:30:40;;;;;;;23.60;11.97;;;4.70;94.40;;;;;;4974998;28;20182;-85
2022/11/25 06:33:05;;;;;;;32.07;14.43;;;4.70;94.40;;;;;;4976266;28;20552;-85
2022/11/25 06:35:31;;;;;;;20.80;11.20;;;4.70;94.30;;;;;;4976317;28;20198;-85
2022/11/25 06:37:58;;;;;;;29.27;11.53;;;4.80;94.40;;;;;;4974741;28;20213;-84
2022/11/25 06:40:23;;;;;;;17.83;10.93;;;4.80;94.40;;;;;;4974909;28;20217;-85
2022/11/25 06:42:49;;;;;;;18.17;10.70;;;4.90;94.30;;;;;;4976246;28;20668;-85
2022/11/25 06:45:14;;;;;;;22.27;11.37;;;4.80;94.30;;;;;;4975190;28;20724;-85
2022/11/25 06:47:40;;;;;;;19.97;11.00;;;4.90;94.20;;;;;;4974971;28;20560;-85
2022/11/25 06:50:06;;;;;;;23.60;12.87;;;4.80;94.20;;;;;;4974942;28;20212;-84
2022/11/25 06:52:32;;;;;;;30.97;14.33;;;4.80;94.20;;;;;;4975156;28;20297;-85
2022/11/25 06:54:57;;;;;;;24.20;10.70;;;4.80;94.10;;;;;;4976172;28;20714;-83
2022/11/25 06:57:23;;;;;;;25.13;10.03;;;4.90;94.10;;;;;;4975238;28;20183;-84
2022/11/25 06:59:50;;;;;;;21.90;11.57;;;4.90;94.10;;;;;;4975942;28;20269;-84
2022/11/25 07:02:15;;;;;;;18.17;11.30;;;5.00;94.10;;;;;;4974771;28;20185;-85
2022/11/25 07:04:41;;;;;;;26.37;11.00;;;5.00;94.00;;;;;;4975900;28;20184;-84
2022/11/25 07:07:07;;;;;;;29.93;11.63;;;5.00;93.90;;;;;;4974465;28;20202;-85
2022/11/25 07:09:32;;;;;;;18.70;9.90;;;5.00;93.90;;;;;;4976014;28;20748;-84
2022/11/25 07:11:58;;;;;;;16.90;9.23;;;5.00;93.90;;;;;;4974393;28;20555;-84
2022/11/25 07:14:23;;;;;;;26.90;12.63;;;5.00;93.90;;;;;;4974464;28;20174;-84
2022/11/25 07:16:49;;;;;;;18.40;9.43;;;5.00;93.80;;;;;;4974822;28;20257;-84
2022/11/25 07:19:16;;;;;;;29.43;11.20;;;5.00;93.80;;;;;;4974512;28;20182;-84
2022/11/25 07:21:44;;;;;;;30.53;13.07;;;5.10;93.80;;;;;;4975584;28;20182;-84
2022/11/25 07:24:12;;;;;;;23.47;10.80;;;5.00;93.70;;;;;;4973414;28;20187;-84
2022/11/25 07:26:38;;;;;;;24.43;10.30;;;5.00;93.70;;;;;;4973910;28;20735;-84
2022/11/25 07:29:11;;;;;;;25.77;11.07;;;5.10;93.80;;;;;;4975309;28;20210;-89
2022/11/25 07:31:42;;;;;;;18.33;10.73;;;5.10;93.70;;;;;;4976005;28;20167;-91
2022/11/25 07:34:14;;;;;;;21.47;11.53;;;5.10;93.80;;;;;;4975480;28;20179;-90
2022/11/25 07:36:40;;;;;;;21.07;10.33;;;5.00;93.70;;;;;;4973906;28;20205;-89
2022/11/25 07:39:10;;;;;;;18.73;9.33;;;5.10;93.70;;;;;;4975977;28;20247;-91
2022/11/25 07:41:35;;;;;;;20.27;8.77;;;5.10;93.70;;;;;;4976299;28;20186;-90
2022/11/25 07:44:04;;;;;;;16.40;9.27;;;5.20;93.70;;;;;;4975309;28;20174;-90
2022/11/25 07:46:37;;;;;;;19.63;9.63;;;5.30;93.60;;;;;;4975924;28;20207;-90
2022/11/25 07:49:06;;;;;;;18.97;9.83;;;5.30;93.50;;;;;;4975105;28;20198;-90
2022/11/25 07:51:35;;;;;;;23.80;10.17;;;5.20;93.30;;;;;;4975738;28;20179;-91
2022/11/25 07:54:03;;;;;;;20.67;9.47;;;5.30;93.30;;;;;;4974728;28;20213;-90
2022/11/25 07:56:29;;;;;;;24.87;10.80;;;5.30;93.30;;;;;;4975775;28;20209;-91
2022/11/25 07:58:56;;;;;;;25.60;10.10;;;5.20;93.20;;;;;;4974331;28;20183;-90
2022/11/25 08:01:21;;;;;;;24.17;11.30;;;5.30;93.20;;;;;;4974760;28;20272;-90
2022/11/25 08:03:49;;;;;;;26.63;10.97;;;5.30;93.20;;;;;;4974796;28;20221;-90
2022/11/25 08:06:20;;;;;;;23.33;11.63;;;5.30;93.10;;;;;;4974340;28;20260;-90
2022/11/25 08:08:46;;;;;;;23.60;10.27;;;5.30;93.00;;;;;;4974901;28;20280;-91
2022/11/25 08:11:19;;;;;;;27.70;10.87;;;5.30;93.10;;;;;;4974658;28;20278;-90
2022/11/25 08:13:45;;;;;;;23.50;11.23;;;5.20;93.10;;;;;;4974966;28;20173;-91
2022/11/25 08:16:13;;;;;;;31.23;9.20;;;5.20;93.10;;;;;;4975332;28;20300;-90
2022/11/25 08:18:39;;;;;;;19.83;8.87;;;5.20;93.10;;;;;;4975207;28;20189;-91
2022/11/25 08:21:11;;;;;;;21.43;10.67;;;5.30;93.20;;;;;;4974778;28;20273;-90
2022/11/25 08:23:38;;;;;;;27.23;8.17;;;5.30;93.10;;;;;;4975171;28;20175;-90
2022/11/25 08:26:04;;;;;;;21.47;9.03;;;5.30;93.10;;;;;;4975630;28;20681;-90
2022/11/25 08:28:30;;;;;;;16.37;8.50;;;5.40;93.10;;;;;;4973344;28;20209;-86
2022/11/25 08:31:25;;;;;;;22.03;8.43;;;5.40;93.10;;;;;;4973351;28;20661;-87
2022/11/25 08:33:52;;;;;;;19.93;8.67;;;5.50;93.10;;;;;;4966233;28;20683;-87
2022/11/25 08:36:18;;;;;;;22.83;9.53;;;5.50;93.10;;;;;;4977090;28;20281;-87
2022/11/25 08:38:46;;;;;;;24.00;8.77;;;5.60;93.00;;;;;;4977037;28;20186;-87
2022/11/25 08:41:15;;;;;;;23.40;8.80;;;5.60;93.00;;;;;;4976955;28;20276;-88
2022/11/25 08:43:41;;;;;;;20.57;8.47;;;5.60;93.00;;;;;;4977500;28;20568;-88
2022/11/25 08:46:12;;;;;;;27.43;9.50;;;5.70;92.90;;;;;;4978756;28;20202;-87
2022/11/25 08:48:38;;;;;;;21.37;9.03;;;5.70;93.00;;;;;;4977062;28;20234;-87
2022/11/25 08:51:11;;;;;;;21.93;7.97;;;5.70;92.90;;;;;;4978280;28;20185;-87
2022/11/25 08:53:38;;;;;;;26.60;8.83;;;5.80;92.90;;;;;;4976828;28;20201;-87
2022/11/25 08:56:05;;;;;;;20.00;9.10;;;5.90;92.90;;;;;;4976534;28;20205;-87
2022/11/25 08:58:30;;;;;;;16.70;8.73;;;5.90;92.80;;;;;;4976745;28;20190;-87
2022/11/25 09:00:56;;;;;;;19.97;8.17;;;5.80;92.60;;;;;;4977061;28;20244;-88
2022/11/25 09:03:21;;;;;;;18.87;7.40;;;5.90;92.70;;;;;;4976458;28;20583;-87
2022/11/25 09:05:48;;;;;;;16.50;7.37;;;5.80;92.60;;;;;;4976411;28;20199;-87
2022/11/25 09:08:13;;;;;;;22.23;9.47;;;5.80;92.60;;;;;;4976361;28;20190;-88
2022/11/25 09:10:39;;;;;;;24.53;9.67;;;5.90;92.80;;;;;;4977555;28;20206;-88
2022/11/25 09:13:06;;;;;;;23.30;8.80;;;6.00;92.90;;;;;;4977594;28;20179;-88
2022/11/25 09:15:31;;;;;;;15.50;8.37;;;6.00;92.80;;;;;;4977412;28;20735;-87
2022/11/25 09:18:02;;;;;;;18.90;8.50;;;6.00;92.80;;;;;;4977453;28;20178;-88
2022/11/25 09:20:28;;;;;;;20.60;9.30;;;6.00;92.70;;;;;;4976737;28;20266;-87
2022/11/25 09:23:03;;;;;;;19.83;8.87;;;6.00;92.70;;;;;;4977686;28;20672;-87
2022/11/25 09:25:28;;;;;;;27.97;9.07;;;6.00;92.70;;;;;;4977320;28;20676;-87
2022/11/25 09:27:55;;;;;;;19.47;9.87;;;6.10;92.80;;;;;;4976465;28;20187;-87
2022/11/25 09:30:21;;;;;;;20.37;9.53;;;6.20;92.90;;;;;;4977224;28;20649;-87
2022/11/25 09:32:49;;;;;;;19.93;8.27;;;6.20;92.90;;;;;;4976051;28;20174;-87
2022/11/25 09:35:15;;;;;;;24.47;11.87;;;6.30;92.90;;;;;;4975850;28;20652;-88
2022/11/25 09:37:41;;;;;;;27.87;12.90;;;6.30;92.90;;;;;;4975914;28;20182;-87
2022/11/25 09:40:11;;;;;;;26.70;14.67;;;6.30;92.90;;;;;;4976203;28;20326;-87
2022/11/25 09:49:27;;;;;;;38.83;13.80;;;6.30;93.00;;;;;;4977420;28;20681;-86
2022/11/25 09:51:55;;;;;;;28.40;11.17;;;6.30;93.10;;;;;;4976491;28;20213;-85
2022/11/25 09:54:28;;;;;;;35.10;13.03;;;6.50;93.20;;;;;;4975843;28;20189;-86
2022/11/25 09:57:20;;;;;;;28.23;11.17;;;6.50;93.20;;;;;;4976167;28;20209;-86
2022/11/25 10:00:16;;;;;;;21.80;9.67;;;6.40;93.10;;;;;;4976975;28;20241;-85
2022/11/25 10:02:58;;;;;;;21.70;9.97;;;6.50;93.20;;;;;;4963602;28;20238;-86
2022/11/25 10:05:33;;;;;;;15.43;6.90;;;6.30;93.10;;;;;;4976749;28;20191;-86
2022/11/25 10:08:21;;;;;;;20.07;9.33;;;6.30;93.20;;;;;;4975525;28;20194;-86
2022/11/25 10:10:51;;;;;;;23.30;10.50;;;6.30;93.20;;;;;;4976175;28;20202;-86
2022/11/25 10:13:28;;;;;;;21.63;8.40;;;6.30;93.30;;;;;;4975711;28;20170;-86
2022/11/25 10:15:56;;;;;;;21.93;8.03;;;6.40;93.40;;;;;;4976774;28;20194;-86
2022/11/25 10:18:30;;;;;;;20.97;7.83;;;6.30;93.40;;;;;;4975160;28;20661;-86
2022/11/25 10:20:56;;;;;;;19.30;7.33;;;6.30;93.50;;;;;;4976053;28;20174;-86
2022/11/25 10:23:41;;;;;;;17.63;7.97;;;6.30;93.50;;;;;;4977235;28;20175;-86
2022/11/25 10:26:13;;;;;;;17.40;8.03;;;6.40;93.60;;;;;;4977351;28;20210;-86
2022/11/25 10:28:42;;;;;;;23.73;8.73;;;6.50;93.60;;;;;;4977664;28;20669;-86
2022/11/25 10:31:19;;;;;;;20.67;7.13;;;6.50;93.70;;;;;;4977092;28;20171;-86
2022/11/25 10:33:46;;;;;;;19.20;8.27;;;6.50;93.70;;;;;;4976043;28;20174;-86
2022/11/25 10:36:20;;;;;;;23.90;12.33;;;6.50;93.60;;;;;;4975634;28;20282;-86
2022/11/25 10:39:04;;;;;;;29.40;10.00;;;6.60;93.70;;;;;;4976472;28;20241;-86
2022/11/25 10:42:11;;;;;;;21.70;11.80;;;6.50;93.60;;;;;;4976102;28;20167;-86
2022/11/25 10:44:39;;;;;;;38.67;19.13;;;6.50;93.70;;;;;;4974521;28;20189;-87
2022/11/25 10:47:33;;;;;;;32.77;15.37;;;6.50;93.70;;;;;;4977616;28;20661;-86
2022/11/25 10:50:10;;;;;;;34.50;15.33;;;6.60;93.70;;;;;;4977651;28;20206;-89
2022/11/25 10:52:53;;;;;;;36.20;12.60;;;6.60;93.80;;;;;;4975372;28;20206;-86
2022/11/25 10:55:25;;;;;;;17.97;8.67;;;6.60;93.80;;;;;;4974666;28;20198;-88
2022/11/25 10:57:52;;;;;;;19.13;8.30;;;6.60;93.90;;;;;;4974693;28;20193;-87
2022/11/25 11:00:28;;;;;;;15.13;8.30;;;6.60;94.00;;;;;;4974945;28;20186;-87
2022/11/25 11:02:54;;;;;;;31.70;13.70;;;6.60;94.10;;;;;;4974609;28;20179;-87
2022/11/25 11:05:27;;;;;;;25.63;11.70;;;6.70;94.10;;;;;;4974576;28;20576;-88
2022/11/25 11:08:11;;;;;;;20.30;9.13;;;6.70;94.20;;;;;;4974198;28;20206;-87
2022/11/25 11:10:37;;;;;;;25.33;9.20;;;6.70;94.20;;;;;;4974934;28;20215;-86
2022/11/25 11:13:16;;;;;;;22.37;8.70;;;6.80;94.30;;;;;;4976167;28;20177;-87
2022/11/25 11:15:41;;;;;;;29.30;9.10;;;6.80;94.30;;;;;;4974520;28;20225;-86
2022/11/25 11:18:36;;;;;;;24.03;10.43;;;6.80;94.30;;;;;;4975388;28;20638;-86
2022/11/25 11:21:03;;;;;;;20.13;8.53;;;6.90;94.40;;;;;;4971953;28;20194;-87
2022/11/25 11:23:29;;;;;;;20.33;8.90;;;6.90;94.30;;;;;;4974292;28;20273;-87
2022/11/25 11:26:00;;;;;;;24.07;9.27;;;6.90;94.40;;;;;;4975278;28;20233;-88
2022/11/25 11:28:35;;;;;;;26.67;10.77;;;7.00;94.40;;;;;;4975383;28;20194;-88
2022/11/25 11:31:19;;;;;;;27.13;8.27;;;7.00;94.40;;;;;;4973889;28;20182;-88
2022/11/25 11:33:53;;;;;;;18.67;8.57;;;7.10;94.40;;;;;;4975003;28;20167;-89
2022/11/25 11:36:54;;;;;;;21.97;9.90;;;7.10;94.40;;;;;;4973771;28;20225;-88
2022/11/25 11:40:13;;;;;;;21.77;8.00;;;7.20;94.50;;;;;;4976008;28;20178;-90
2022/11/25 11:43:01;;;;;;;20.53;8.60;;;7.10;94.40;;;;;;4976255;28;20736;-91
2022/11/25 11:45:32;;;;;;;24.53;8.07;;;7.20;94.40;;;;;;4977157;28;20290;-91
2022/11/25 11:48:30;;;;;;;23.53;8.77;;;7.20;94.50;;;;;;4978648;28;20175;-91
2022/11/25 11:51:08;;;;;;;14.70;7.40;;;7.20;94.50;;;;;;4953978;28;20253;-92
2022/11/25 11:53:59;;;;;;;20.00;8.17;;;7.30;94.60;;;;;;4975495;28;20202;-92
2022/11/25 11:57:03;;;;;;;23.17;8.17;;;7.30;94.60;;;;;;4976017;28;20203;-92
2022/11/25 12:00:03;;;;;;;29.27;8.87;;;7.40;94.70;;;;;;4979977;28;20172;-92
2022/11/25 12:03:04;;;;;;;17.53;8.27;;;7.60;94.80;;;;;;4967376;28;20190;-92
2022/11/25 12:05:34;;;;;;;21.83;8.20;;;7.60;94.70;;;;;;4920766;29;20202;-91
2022/11/25 12:08:29;;;;;;;17.40;8.63;;;7.60;94.70;;;;;;4964850;28;20207;-92
2022/11/25 12:11:03;;;;;;;15.80;7.27;;;7.60;94.70;;;;;;4975992;28;20181;-91
2022/11/25 12:13:52;;;;;;;22.47;8.20;;;7.70;94.70;;;;;;4977410;28;20172;-91
2022/11/25 12:16:33;;;;;;;27.17;8.67;;;7.60;94.60;;;;;;4977896;28;20266;-92
2022/11/25 12:19:21;;;;;;;29.97;9.37;;;7.60;94.60;;;;;;4980344;28;20181;-92
2022/11/25 12:22:07;;;;;;;18.10;8.67;;;7.60;94.70;;;;;;4978788;28;20175;-91
2022/11/25 12:24:50;;;;;;;22.37;8.40;;;7.60;94.70;;;;;;4977615;28;20648;-91
2022/11/25 12:27:39;;;;;;;17.77;8.67;;;7.60;94.60;;;;;;4990139;28;20235;-90
2022/11/25 12:30:31;;;;;;;25.20;9.13;;;7.50;94.60;;;;;;4998731;28;20217;-92
2022/11/25 12:33:03;;;;;;;23.07;7.90;;;7.50;94.70;;;;;;4999405;28;20144;-92
2022/11/25 12:35:59;;;;;;;31.47;9.20;;;7.60;94.70;;;;;;4998718;28;20250;-92
2022/11/25 12:39:04;;;;;;;22.87;9.50;;;7.70;94.70;;;;;;4997937;28;20193;-92
2022/11/25 12:41:49;;;;;;;20.73;7.97;;;7.60;94.60;;;;;;4992620;28;20179;-91
2022/11/25 12:44:26;;;;;;;23.00;8.27;;;7.60;94.70;;;;;;4994822;28;20170;-92
2022/11/25 12:49:40;;;;;;;26.70;9.80;;;7.60;94.70;;;;;;5185592;23;20222;-91
2022/11/25 12:52:20;;;;;;;23.03;8.27;;;7.60;94.80;;;;;;5027030;23;20229;-91
2022/11/25 12:55:15;;;;;;;23.20;10.37;;;7.60;94.80;;;;;;5017986;28;20166;-94
2022/11/25 12:58:20;;;;;;;39.63;13.50;;;7.70;94.90;;;;;;5018128;28;20190;-92
2022/11/25 13:01:18;;;;;;;22.53;8.90;;;7.70;94.80;;;;;;5018274;28;20202;-93
2022/11/25 13:04:21;;;;;;;18.13;7.67;;;7.70;94.90;;;;;;5018599;28;20163;-93
2022/11/25 13:07:11;;;;;;;22.87;8.80;;;7.70;94.90;;;;;;5018079;28;20194;-92
2022/11/25 13:10:01;;;;;;;30.97;9.97;;;7.70;94.90;;;;;;5017738;28;20194;-93
2022/11/25 13:12:43;;;;;;;25.47;10.10;;;7.80;94.90;;;;;;5018444;28;20175;-93
2022/11/25 13:15:24;;;;;;;25.20;9.47;;;7.80;94.90;;;;;;5018429;28;20257;-93